createdAt,value
2022-11-16T00:00:58.509Z,10.20
2022-11-16T00:03:25.324Z,10.20
2022-11-16T00:06:01.744Z,10.20
2022-11-16T00:08:32.989Z,10.20
2022-11-16T00:11:08.999Z,10.20
2022-11-16T00:13:36.349Z,10.20
2022-11-16T00:16:03.556Z,10.20
2022-11-16T00:18:30.781Z,10.20
2022-11-16T00:20:57.952Z,10.20
2022-11-16T00:23:24.816Z,10.20
2022-11-16T00:25:51.493Z,10.20
2022-11-16T00:28:18.115Z,10.20
2022-11-16T00:30:44.843Z,10.10
2022-11-16T00:33:13.823Z,10.10
2022-11-16T00:35:41.118Z,10.10
2022-11-16T00:38:07.992Z,10.10
2022-11-16T00:40:34.678Z,10.10
2022-11-16T00:43:01.424Z,10.10
2022-11-16T00:45:28.124Z,10.10
2022-11-16T00:48:00.174Z,10.10
2022-11-16T00:50:27.260Z,10.10
2022-11-16T00:52:54.387Z,10.10
2022-11-16T00:55:21.063Z,10.20
2022-11-16T00:57:48.074Z,10.20
2022-11-16T01:00:15.049Z,10.20
2022-11-16T01:02:41.828Z,10.30
2022-11-16T01:05:09.628Z,10.30
2022-11-16T01:07:37.151Z,10.30
2022-11-16T01:10:05.403Z,10.30
2022-11-16T01:12:32.110Z,10.30
2022-11-16T01:14:58.737Z,10.30
2022-11-16T01:17:25.391Z,10.30
2022-11-16T01:19:52.195Z,10.30
2022-11-16T01:22:18.941Z,10.30
2022-11-16T01:24:46.681Z,10.40
2022-11-16T01:27:13.716Z,10.30
2022-11-16T01:29:40.488Z,10.40
2022-11-16T01:32:07.098Z,10.30
2022-11-16T01:34:33.718Z,10.30
2022-11-16T01:37:00.407Z,10.10
2022-11-16T01:39:27.113Z,9.90
2022-11-16T01:41:53.864Z,9.80
2022-11-16T01:44:32.542Z,9.90
2022-11-16T01:47:05.793Z,9.90
2022-11-16T01:49:33.730Z,9.90
2022-11-16T01:52:02.584Z,9.80
2022-11-16T01:54:31.040Z,9.60
2022-11-16T01:57:00.597Z,9.60
2022-11-16T01:59:27.416Z,9.70
2022-11-16T02:01:54.115Z,9.80
2022-11-16T02:04:20.867Z,9.80
2022-11-16T02:06:47.452Z,9.80
2022-11-16T02:09:48.888Z,9.80
2022-11-16T02:12:15.503Z,9.80
2022-11-16T02:15:00.848Z,9.80
2022-11-16T02:17:30.179Z,9.80
2022-11-16T02:20:10.810Z,9.70
2022-11-16T02:22:46.258Z,9.80
2022-11-16T02:25:17.308Z,9.70
2022-11-16T02:27:59.878Z,9.60
2022-11-16T02:30:26.496Z,9.60
2022-11-16T02:32:58.049Z,9.70
2022-11-16T02:35:27.147Z,9.70
2022-11-16T02:37:57.297Z,9.80
2022-11-16T02:40:26.224Z,9.90
2022-11-16T02:42:55.294Z,9.90
2022-11-16T02:45:23.893Z,9.90
2022-11-16T02:47:51.480Z,9.90
2022-11-16T02:50:19.577Z,9.80
2022-11-16T02:52:46.424Z,9.90
2022-11-16T02:55:13.565Z,9.90
2022-11-16T02:57:43.066Z,9.70
2022-11-16T03:00:12.295Z,9.90
2022-11-16T03:02:50.850Z,9.90
2022-11-16T03:05:20.454Z,9.90
2022-11-16T03:07:49.490Z,9.90
2022-11-16T03:10:37.512Z,9.90
2022-11-16T03:13:05.490Z,10.00
2022-11-16T03:15:33.065Z,10.00
2022-11-16T03:18:00.163Z,10.00
2022-11-16T03:20:27.963Z,10.00
2022-11-16T03:22:59.097Z,10.00
2022-11-16T03:25:28.620Z,10.00
2022-11-16T03:27:58.042Z,10.00
2022-11-16T03:30:25.694Z,10.00
2022-11-16T03:32:59.642Z,10.00
2022-11-16T03:35:37.262Z,10.00
2022-11-16T03:38:04.987Z,9.90
2022-11-16T03:40:33.601Z,9.90
2022-11-16T03:43:01.643Z,9.90
2022-11-16T03:45:28.910Z,9.80
2022-11-16T03:47:55.581Z,9.90
2022-11-16T03:50:22.327Z,9.90
2022-11-16T03:52:49.154Z,9.90
2022-11-16T03:55:15.791Z,9.80
2022-11-16T03:57:42.460Z,9.80
2022-11-16T04:00:09.591Z,9.90
2022-11-16T04:02:36.351Z,9.80
2022-11-16T04:05:21.518Z,9.80
2022-11-16T04:08:07.099Z,9.70
2022-11-16T04:10:52.371Z,9.70
2022-11-16T04:13:43.004Z,9.70
2022-11-16T04:16:28.952Z,9.70
2022-11-16T04:19:14.397Z,9.60
2022-11-16T04:22:01.454Z,9.60
2022-11-16T04:24:30.343Z,9.50
2022-11-16T04:27:16.598Z,9.50
2022-11-16T04:29:43.782Z,9.50
2022-11-16T04:32:29.541Z,9.60
2022-11-16T04:35:14.984Z,9.50
2022-11-16T04:37:52.408Z,9.40
2022-11-16T04:40:20.225Z,9.60
2022-11-16T04:42:54.073Z,9.70
2022-11-16T04:45:40.215Z,9.70
2022-11-16T04:48:07.309Z,9.80
2022-11-16T04:50:34.356Z,9.70
2022-11-16T04:53:01.215Z,9.80
2022-11-16T04:55:28.097Z,9.90
2022-11-16T04:57:54.880Z,10.00
2022-11-16T05:00:22.070Z,10.00
2022-11-16T05:02:48.740Z,10.10
2022-11-16T05:05:15.464Z,10.10
2022-11-16T05:07:42.114Z,10.10
2022-11-16T05:10:09.038Z,10.00
2022-11-16T05:12:35.769Z,10.00
2022-11-16T05:15:02.625Z,10.10
2022-11-16T05:17:29.437Z,10.10
2022-11-16T05:20:14.462Z,10.10
2022-11-16T05:22:41.411Z,10.10
2022-11-16T05:25:08.794Z,10.00
2022-11-16T05:27:35.780Z,9.90
2022-11-16T05:30:02.473Z,10.00
2022-11-16T05:32:29.112Z,10.00
2022-11-16T05:34:55.741Z,10.00
2022-11-16T05:37:26.223Z,10.00
2022-11-16T05:39:53.515Z,10.10
2022-11-16T05:42:20.216Z,10.10
2022-11-16T05:44:46.849Z,10.10
2022-11-16T05:47:13.533Z,10.10
2022-11-16T05:49:40.256Z,10.10
2022-11-16T05:52:06.915Z,10.10
2022-11-16T05:54:33.890Z,10.10
2022-11-16T05:57:00.576Z,10.10
2022-11-16T05:59:27.777Z,10.20
2022-11-16T06:01:57.917Z,10.20
2022-11-16T06:04:25.064Z,10.20
2022-11-16T06:06:51.938Z,10.20
2022-11-16T06:09:18.635Z,10.20
2022-11-16T06:11:45.332Z,10.20
2022-11-16T06:14:12.091Z,10.20
2022-11-16T06:16:38.864Z,10.30
2022-11-16T06:19:08.045Z,10.20
2022-11-16T06:21:34.802Z,10.30
2022-11-16T06:24:02.701Z,10.30
2022-11-16T06:26:29.513Z,10.30
2022-11-16T06:28:56.198Z,10.30
2022-11-16T06:31:22.801Z,10.30
2022-11-16T06:33:49.471Z,10.30
2022-11-16T06:36:16.081Z,10.30
2022-11-16T06:38:42.737Z,10.30
2022-11-16T06:41:09.389Z,10.30
2022-11-16T06:43:36.094Z,10.30
2022-11-16T06:46:02.805Z,10.30
2022-11-16T06:48:30.507Z,10.30
2022-11-16T06:50:57.163Z,10.30
2022-11-16T06:53:29.019Z,10.30
2022-11-16T06:56:00.431Z,10.20
2022-11-16T06:58:28.512Z,10.20
2022-11-16T07:00:55.158Z,10.20
2022-11-16T07:03:21.788Z,10.20
2022-11-16T07:05:48.385Z,10.20
2022-11-16T07:08:15.012Z,10.20
2022-11-16T07:10:41.771Z,10.20
2022-11-16T07:13:08.445Z,10.20
2022-11-16T07:15:35.154Z,10.30
2022-11-16T07:18:05.631Z,10.30
2022-11-16T07:20:32.865Z,10.30
2022-11-16T07:23:00.201Z,10.30
2022-11-16T07:25:26.993Z,10.30
2022-11-16T07:27:53.600Z,10.20
2022-11-16T07:30:20.227Z,10.20
2022-11-16T07:32:47.060Z,10.20
2022-11-16T07:35:13.825Z,10.30
2022-11-16T07:37:40.429Z,10.20
2022-11-16T07:40:07.479Z,10.20
2022-11-16T07:42:34.206Z,10.30
2022-11-16T07:45:00.929Z,10.30
2022-11-16T07:47:27.632Z,10.30
2022-11-16T07:49:54.330Z,10.40
2022-11-16T07:52:20.975Z,10.40
2022-11-16T07:54:47.609Z,10.40
2022-11-16T07:57:14.299Z,10.50
2022-11-16T07:59:40.963Z,10.50
2022-11-16T08:02:09.145Z,10.60
2022-11-16T08:04:35.894Z,10.60
2022-11-16T08:07:02.580Z,10.70
2022-11-16T08:09:29.240Z,10.80
2022-11-16T08:11:55.847Z,10.90
2022-11-16T08:14:22.625Z,11.00
2022-11-16T08:16:49.502Z,11.10
2022-11-16T08:19:16.124Z,11.10
2022-11-16T08:21:42.766Z,11.10
2022-11-16T08:24:09.507Z,11.10
2022-11-16T08:26:36.169Z,11.10
2022-11-16T08:29:02.945Z,11.00
2022-11-16T08:31:29.684Z,11.00
2022-11-16T08:33:56.810Z,11.20
2022-11-16T08:36:23.691Z,11.20
2022-11-16T08:38:51.171Z,11.20
2022-11-16T08:41:18.672Z,11.30
2022-11-16T08:43:47.202Z,11.60
2022-11-16T08:46:14.446Z,11.60
2022-11-16T08:48:41.206Z,11.70
2022-11-16T08:51:17.880Z,11.80
2022-11-16T08:53:48.075Z,11.80
2022-11-16T08:56:15.903Z,11.90
2022-11-16T08:58:43.742Z,12.10
2022-11-16T09:01:11.524Z,12.10
2022-11-16T09:03:38.881Z,12.20
2022-11-16T09:06:06.228Z,12.20
2022-11-16T09:08:33.690Z,12.30
2022-11-16T09:11:03.453Z,12.40
2022-11-16T09:13:30.149Z,12.60
2022-11-16T09:15:57.431Z,12.60
2022-11-16T09:18:24.610Z,12.80
2022-11-16T09:20:51.411Z,13.00
2022-11-16T09:23:23.757Z,13.00
2022-11-16T09:25:52.027Z,13.00
2022-11-16T09:28:18.986Z,13.00
2022-11-16T09:30:46.285Z,12.60
2022-11-16T09:33:13.382Z,12.60
2022-11-16T09:35:40.409Z,12.70
2022-11-16T09:38:09.838Z,12.70
2022-11-16T09:40:37.965Z,12.80
2022-11-16T09:43:16.527Z,12.90
2022-11-16T09:45:49.344Z,13.00
2022-11-16T09:48:17.061Z,13.90
2022-11-16T09:51:01.863Z,15.00
2022-11-16T09:53:44.449Z,15.20
2022-11-16T09:56:19.144Z,15.00
2022-11-16T09:59:02.703Z,14.80
2022-11-16T10:01:41.383Z,14.80
2022-11-16T10:04:36.439Z,14.80
2022-11-16T10:07:08.818Z,14.80
2022-11-16T10:09:36.060Z,15.00
2022-11-16T10:12:06.592Z,14.90
2022-11-16T10:14:45.338Z,14.80
2022-11-16T10:17:14.804Z,14.50
2022-11-16T10:19:49.326Z,14.30
2022-11-16T10:22:27.428Z,14.30
2022-11-16T10:24:58.030Z,14.10
2022-11-16T10:27:44.475Z,13.80
2022-11-16T10:30:16.121Z,13.50
2022-11-16T10:32:55.026Z,13.70
2022-11-16T10:35:33.855Z,15.30
2022-11-16T10:38:02.678Z,17.70
2022-11-16T10:40:30.400Z,19.50
2022-11-16T10:43:13.139Z,20.20
2022-11-16T10:45:50.192Z,21.10
2022-11-16T10:48:22.761Z,20.60
2022-11-16T10:50:50.529Z,19.60
2022-11-16T10:53:28.275Z,18.10
2022-11-16T10:56:09.612Z,17.20
2022-11-16T10:59:15.080Z,16.70
2022-11-16T11:01:54.774Z,16.10
2022-11-16T11:04:28.437Z,15.50
2022-11-16T11:06:56.254Z,15.20
2022-11-16T11:09:22.895Z,15.20
2022-11-16T11:12:17.268Z,15.30
2022-11-16T11:15:04.208Z,15.20
2022-11-16T11:17:32.051Z,15.10
2022-11-16T11:20:19.796Z,15.10
2022-11-16T11:22:54.413Z,15.10
2022-11-16T11:25:32.481Z,15.30
2022-11-16T11:28:06.516Z,15.60
2022-11-16T11:30:33.960Z,15.70
2022-11-16T11:33:00.888Z,16.10
2022-11-16T11:35:31.882Z,16.30
2022-11-16T11:38:07.240Z,16.60
2022-11-16T11:40:34.598Z,16.50
2022-11-16T11:43:02.495Z,16.10
2022-11-16T11:45:32.339Z,16.10
2022-11-16T11:48:03.146Z,15.60
2022-11-16T11:50:38.965Z,15.50
2022-11-16T11:53:08.129Z,15.00
2022-11-16T11:55:35.063Z,14.80
2022-11-16T11:58:02.738Z,14.60
2022-11-16T12:00:36.506Z,14.70
2022-11-16T12:03:32.503Z,14.70
2022-11-16T12:05:59.401Z,14.80
2022-11-16T12:08:25.982Z,14.90
2022-11-16T12:10:58.680Z,14.90
2022-11-16T12:13:25.322Z,14.90
2022-11-16T12:16:02.039Z,14.80
2022-11-16T12:18:37.441Z,14.70
2022-11-16T12:21:13.421Z,14.70
2022-11-16T12:23:58.639Z,14.60
2022-11-16T12:26:32.939Z,14.50
2022-11-16T12:29:19.204Z,14.50
2022-11-16T12:31:58.278Z,14.50
2022-11-16T12:34:28.196Z,14.40
2022-11-16T12:37:03.470Z,14.40
2022-11-16T12:39:44.346Z,14.30
2022-11-16T12:42:11.282Z,14.40
2022-11-16T12:44:56.381Z,14.50
2022-11-16T12:47:26.353Z,14.70
2022-11-16T12:49:59.164Z,15.00
2022-11-16T12:52:41.178Z,14.90
2022-11-16T12:55:25.973Z,14.90
2022-11-16T12:57:59.299Z,14.60
2022-11-16T13:00:26.513Z,14.40
2022-11-16T13:03:05.452Z,14.30
2022-11-16T13:05:50.614Z,14.20
2022-11-16T13:08:23.190Z,14.20
2022-11-16T13:10:52.593Z,14.30
2022-11-16T13:13:35.943Z,14.40
2022-11-16T13:16:05.247Z,14.40
2022-11-16T13:18:33.022Z,14.30
2022-11-16T13:21:02.494Z,14.40
2022-11-16T13:23:32.374Z,14.30
2022-11-16T13:26:31.767Z,14.30
2022-11-16T13:29:01.788Z,14.20
2022-11-16T13:31:35.470Z,14.00
2022-11-16T13:34:05.513Z,13.80
2022-11-16T13:36:32.105Z,13.70
2022-11-16T13:38:58.989Z,13.60
2022-11-16T13:41:29.258Z,13.60
2022-11-16T13:43:56.094Z,13.60
2022-11-16T13:46:54.111Z,13.50
2022-11-16T13:49:28.548Z,13.50
2022-11-16T13:51:56.494Z,13.50
2022-11-16T13:54:50.015Z,13.50
2022-11-16T13:57:27.252Z,13.50
2022-11-16T13:59:57.101Z,13.50
2022-11-16T14:02:33.565Z,13.60
2022-11-16T14:05:01.414Z,13.60
2022-11-16T14:07:33.940Z,13.60
2022-11-16T14:10:01.252Z,13.50
2022-11-16T14:12:46.582Z,13.50
2022-11-16T14:15:17.737Z,13.40
2022-11-16T14:17:50.269Z,13.40
2022-11-16T14:20:25.875Z,13.30
2022-11-16T14:23:09.133Z,13.30
2022-11-16T14:25:41.371Z,13.20
2022-11-16T14:28:14.126Z,13.10
2022-11-16T14:30:49.796Z,13.10
2022-11-16T14:33:25.737Z,13.00
2022-11-16T14:35:53.336Z,13.00
2022-11-16T14:38:31.761Z,12.90
2022-11-16T14:40:59.914Z,12.80
2022-11-16T14:43:30.156Z,12.80
2022-11-16T14:45:59.018Z,12.70
2022-11-16T14:48:26.238Z,12.70
2022-11-16T14:51:02.311Z,12.70
2022-11-16T14:53:29.396Z,12.70
2022-11-16T14:56:09.618Z,12.60
2022-11-16T14:58:36.482Z,12.50
2022-11-16T15:01:05.058Z,12.40
2022-11-16T15:03:34.403Z,12.30
2022-11-16T15:06:02.449Z,12.20
2022-11-16T15:08:33.021Z,12.30
2022-11-16T15:10:59.854Z,12.20
2022-11-16T15:13:26.647Z,12.10
2022-11-16T15:16:09.919Z,12.00
2022-11-16T15:18:36.691Z,11.90
2022-11-16T15:21:03.378Z,11.80
2022-11-16T15:23:30.915Z,11.70
2022-11-16T15:26:00.277Z,11.60
2022-11-16T15:28:28.687Z,11.40
2022-11-16T15:30:55.526Z,11.20
2022-11-16T15:33:27.019Z,11.10
2022-11-16T15:35:55.655Z,10.90
2022-11-16T15:38:22.322Z,10.70
2022-11-16T15:40:54.890Z,10.60
2022-11-16T15:43:23.319Z,10.40
2022-11-16T15:45:50.145Z,10.20
2022-11-16T15:48:20.889Z,10.00
2022-11-16T15:51:07.460Z,9.90
2022-11-16T15:53:34.367Z,9.80
2022-11-16T15:56:01.570Z,9.70
2022-11-16T15:58:29.103Z,9.60
2022-11-16T16:00:56.080Z,9.60
2022-11-16T16:03:24.438Z,9.50
2022-11-16T16:05:51.431Z,9.40
2022-11-16T16:08:33.188Z,9.30
2022-11-16T16:11:02.683Z,9.10
2022-11-16T16:13:33.396Z,9.00
2022-11-16T16:16:19.242Z,8.90
2022-11-16T16:18:46.132Z,8.90
2022-11-16T16:21:13.954Z,8.90
2022-11-16T16:23:44.537Z,8.80
2022-11-16T16:26:11.180Z,8.70
2022-11-16T16:28:38.466Z,8.60
2022-11-16T16:31:05.466Z,8.60
2022-11-16T16:33:32.445Z,8.40
2022-11-16T16:35:59.363Z,8.30
2022-11-16T16:38:26.075Z,8.20
2022-11-16T16:40:52.800Z,8.00
2022-11-16T16:43:19.524Z,7.90
2022-11-16T16:45:46.266Z,7.80
2022-11-16T16:48:12.976Z,7.70
2022-11-16T16:50:40.007Z,7.60
2022-11-16T16:53:06.704Z,7.50
2022-11-16T16:55:37.560Z,7.40
2022-11-16T16:58:05.114Z,7.30
2022-11-16T17:00:31.878Z,7.30
2022-11-16T17:02:58.574Z,7.20
2022-11-16T17:05:26.368Z,7.10
2022-11-16T17:07:56.220Z,7.10
2022-11-16T17:10:22.990Z,7.00
2022-11-16T17:12:53.147Z,7.00
2022-11-16T17:15:19.792Z,6.90
2022-11-16T17:17:46.519Z,6.80
2022-11-16T17:20:13.406Z,6.80
2022-11-16T17:22:41.876Z,6.70
2022-11-16T17:25:09.154Z,6.70
2022-11-16T17:27:35.970Z,6.60
2022-11-16T17:30:02.845Z,6.50
2022-11-16T17:32:29.835Z,6.30
2022-11-16T17:34:57.133Z,6.30
2022-11-16T17:37:23.742Z,6.30
2022-11-16T17:39:50.356Z,6.30
2022-11-16T17:42:17.168Z,6.20
2022-11-16T17:44:45.656Z,6.20
2022-11-16T17:47:12.383Z,6.10
2022-11-16T17:49:39.288Z,6.10
2022-11-16T17:52:06.485Z,6.10
2022-11-16T17:54:33.130Z,6.00
2022-11-16T17:56:59.736Z,5.90
2022-11-16T17:59:29.469Z,5.90
2022-11-16T18:01:58.182Z,5.80
2022-11-16T18:04:25.212Z,5.80
2022-11-16T18:06:51.961Z,5.80
2022-11-16T18:09:18.934Z,5.70
2022-11-16T18:11:45.801Z,5.70
2022-11-16T18:14:12.588Z,5.60
2022-11-16T18:16:42.353Z,5.50
2022-11-16T18:19:11.926Z,5.50
2022-11-16T18:21:39.747Z,5.40
2022-11-16T18:24:07.739Z,5.30
2022-11-16T18:26:34.448Z,5.30
2022-11-16T18:29:01.215Z,5.30
2022-11-16T18:31:29.742Z,5.20
2022-11-16T18:33:56.556Z,5.20
2022-11-16T18:36:23.260Z,5.20
2022-11-16T18:38:50.076Z,5.20
2022-11-16T18:41:19.698Z,5.10
2022-11-16T18:43:55.538Z,5.10
2022-11-16T18:46:23.943Z,5.00
2022-11-16T18:48:50.697Z,5.00
2022-11-16T18:51:17.874Z,5.00
2022-11-16T18:53:44.510Z,4.90
2022-11-16T18:56:14.254Z,4.90
2022-11-16T18:58:51.012Z,4.90
2022-11-16T19:01:19.846Z,4.80
2022-11-16T19:03:47.033Z,4.80
2022-11-16T19:06:17.151Z,4.70
2022-11-16T19:08:44.166Z,4.70
2022-11-16T19:11:12.100Z,4.70
2022-11-16T19:13:39.891Z,4.60
2022-11-16T19:16:06.916Z,4.60
2022-11-16T19:18:33.576Z,4.60
2022-11-16T19:21:04.321Z,4.60
2022-11-16T19:23:34.659Z,4.50
2022-11-16T19:26:02.416Z,4.50
2022-11-16T19:28:29.214Z,4.50
2022-11-16T19:30:55.834Z,4.50
2022-11-16T19:33:22.528Z,4.50
2022-11-16T19:35:49.187Z,4.40
2022-11-16T19:38:15.849Z,4.40
2022-11-16T19:40:42.512Z,4.30
2022-11-16T19:43:09.176Z,4.30
2022-11-16T19:45:35.839Z,4.30
2022-11-16T19:48:02.485Z,4.20
2022-11-16T19:50:29.221Z,4.20
2022-11-16T19:52:56.179Z,4.20
2022-11-16T19:55:22.835Z,4.20
2022-11-16T19:57:49.568Z,4.20
2022-11-16T20:00:16.593Z,4.20
2022-11-16T20:02:43.247Z,4.10
2022-11-16T20:05:10.015Z,4.10
2022-11-16T20:07:38.873Z,4.10
2022-11-16T20:10:06.651Z,4.10
2022-11-16T20:12:33.271Z,4.00
2022-11-16T20:15:01.408Z,4.00
2022-11-16T20:17:28.081Z,3.90
2022-11-16T20:19:54.724Z,3.90
2022-11-16T20:22:21.383Z,3.90
2022-11-16T20:24:48.144Z,3.90
2022-11-16T20:27:14.827Z,3.90
2022-11-16T20:29:41.899Z,3.90
2022-11-16T20:32:11.924Z,4.00
2022-11-16T20:34:39.137Z,3.90
2022-11-16T20:37:06.726Z,3.90
2022-11-16T20:39:33.403Z,3.90
2022-11-16T20:42:00.083Z,3.90
2022-11-16T20:44:30.988Z,3.90
2022-11-16T20:46:57.761Z,3.90
2022-11-16T20:49:27.830Z,3.80
2022-11-16T20:51:57.563Z,3.80
2022-11-16T20:54:24.437Z,3.90
2022-11-16T20:56:51.447Z,3.90
2022-11-16T20:59:21.642Z,3.90
2022-11-16T21:01:55.584Z,3.90
2022-11-16T21:04:22.334Z,3.90
2022-11-16T21:06:49.122Z,3.90
2022-11-16T21:09:22.024Z,3.90
2022-11-16T21:12:07.807Z,3.90
2022-11-16T21:14:34.535Z,3.90
2022-11-16T21:17:01.216Z,3.90
2022-11-16T21:19:27.900Z,4.00
2022-11-16T21:21:54.546Z,4.00
2022-11-16T21:24:24.691Z,4.00
2022-11-16T21:26:52.223Z,4.10
2022-11-16T21:29:22.253Z,4.10
2022-11-16T21:31:49.014Z,4.10
2022-11-16T21:34:15.701Z,4.10
2022-11-16T21:36:42.335Z,4.10
2022-11-16T21:39:08.971Z,4.10
2022-11-16T21:41:35.812Z,4.10
2022-11-16T21:44:02.775Z,4.10
2022-11-16T21:46:29.729Z,4.10
2022-11-16T21:48:56.893Z,4.10
2022-11-16T21:51:25.240Z,4.10
2022-11-16T21:53:52.015Z,4.10
2022-11-16T21:56:20.047Z,4.20
2022-11-16T21:58:46.754Z,4.20
2022-11-16T22:01:15.668Z,4.10
2022-11-16T22:03:42.489Z,4.20
2022-11-16T22:06:31.135Z,4.10
2022-11-16T22:08:58.199Z,4.10
2022-11-16T22:11:24.967Z,4.10
2022-11-16T22:13:51.774Z,4.00
2022-11-16T22:16:19.297Z,4.10
2022-11-16T22:18:46.039Z,4.10
2022-11-16T22:21:15.338Z,4.10
2022-11-16T22:23:42.487Z,4.10
2022-11-16T22:26:11.891Z,4.10
2022-11-16T22:28:41.372Z,4.10
2022-11-16T22:31:16.893Z,4.20
2022-11-16T22:33:43.573Z,4.20
2022-11-16T22:36:11.975Z,4.20
2022-11-16T22:38:38.703Z,4.20
2022-11-16T22:41:05.423Z,4.30
2022-11-16T22:43:32.810Z,4.30
2022-11-16T22:46:01.264Z,4.30
2022-11-16T22:48:31.765Z,4.30
2022-11-16T22:51:21.377Z,4.40
2022-11-16T22:53:51.895Z,4.50
2022-11-16T22:56:18.537Z,4.50
2022-11-16T22:58:45.297Z,4.60
2022-11-16T23:01:11.911Z,4.70
2022-11-16T23:03:39.032Z,4.70
2022-11-16T23:06:06.434Z,4.70
2022-11-16T23:08:34.181Z,4.80
2022-11-16T23:11:22.451Z,4.80
2022-11-16T23:14:07.972Z,4.80
2022-11-16T23:16:34.963Z,4.90
2022-11-16T23:19:01.572Z,4.90
2022-11-16T23:21:47.147Z,5.00
2022-11-16T23:24:33.262Z,5.00
2022-11-16T23:27:20.206Z,5.10
2022-11-16T23:29:46.976Z,5.10
2022-11-16T23:32:13.654Z,5.10
2022-11-16T23:34:40.304Z,5.20
2022-11-16T23:37:07.655Z,5.20
2022-11-16T23:39:34.293Z,5.20
2022-11-16T23:42:19.474Z,5.30
2022-11-16T23:44:46.314Z,5.30
2022-11-16T23:47:12.920Z,5.40
2022-11-16T23:49:39.505Z,5.40
2022-11-16T23:52:06.199Z,5.50
2022-11-16T23:54:32.967Z,5.50
2022-11-16T23:56:59.630Z,5.60
2022-11-16T23:59:26.302Z,5.60
